sensor_id;sensor_type;location;lat;lon;timestamp;temperature;humidity
7472;DHT22;3777;48.722;8.110;2024-01-06T00:00:13;7.70;99.90
7472;DHT22;3777;48.722;8.110;2024-01-06T00:02:40;7.70;99.90
7472;DHT22;3777;48.722;8.110;2024-01-06T00:05:08;7.70;99.90
7472;DHT22;3777;48.722;8.110;2024-01-06T00:07:35;7.70;99.90
7472;DHT22;3777;48.722;8.110;2024-01-06T00:10:02;7.70;99.90
7472;DHT22;3777;48.722;8.110;2024-01-06T00:12:29;7.80;99.90
7472;DHT22;3777;48.722;8.110;2024-01-06T00:14:56;7.70;99.90
7472;DHT22;3777;48.722;8.110;2024-01-06T00:17:24;7.70;99.90
7472;DHT22;3777;48.722;8.110;2024-01-06T00:19:51;7.70;99.90
7472;DHT22;3777;48.722;8.110;2024-01-06T00:22:18;7.70;99.90
7472;DHT22;3777;48.722;8.110;2024-01-06T00:24:45;7.70;99.90
7472;DHT22;3777;48.722;8.110;2024-01-06T00:27:12;7.70;99.90
7472;DHT22;3777;48.722;8.110;2024-01-06T00:29:39;7.70;99.90
7472;DHT22;3777;48.722;8.110;2024-01-06T00:32:06;7.80;99.90
7472;DHT22;3777;48.722;8.110;2024-01-06T00:34:35;7.80;99.90
7472;DHT22;3777;48.722;8.110;2024-01-06T00:37:02;7.80;99.90
7472;DHT22;3777;48.722;8.110;2024-01-06T00:39:29;7.80;99.90
7472;DHT22;3777;48.722;8.110;2024-01-06T00:41:55;7.80;99.90
7472;DHT22;3777;48.722;8.110;2024-01-06T00:44:22;7.90;99.90
7472;DHT22;3777;48.722;8.110;2024-01-06T00:46:49;7.90;99.90
7472;DHT22;3777;48.722;8.110;2024-01-06T00:49:16;7.90;99.90
7472;DHT22;3777;48.722;8.110;2024-01-06T00:51:45;7.90;99.90
7472;DHT22;3777;48.722;8.110;2024-01-06T00:54:12;7.90;99.90
7472;DHT22;3777;48.722;8.110;2024-01-06T00:56:39;7.90;99.90
7472;DHT22;3777;48.722;8.110;2024-01-06T00:59:10;7.90;99.90
7472;DHT22;3777;48.722;8.110;2024-01-06T01:01:37;7.90;99.90
7472;DHT22;3777;48.722;8.110;2024-01-06T01:04:04;7.90;99.90
7472;DHT22;3777;48.722;8.110;2024-01-06T01:06:30;7.90;99.90
7472;DHT22;3777;48.722;8.110;2024-01-06T01:08:59;7.90;99.90
7472;DHT22;3777;48.722;8.110;2024-01-06T01:11:26;7.90;99.90
7472;DHT22;3777;48.722;8.110;2024-01-06T01:13:53;7.90;99.90
7472;DHT22;3777;48.722;8.110;2024-01-06T01:16:20;7.90;99.90
7472;DHT22;3777;48.722;8.110;2024-01-06T01:18:46;7.80;99.90
7472;DHT22;3777;48.722;8.110;2024-01-06T01:21:14;7.80;99.90
7472;DHT22;3777;48.722;8.110;2024-01-06T01:23:41;7.80;99.90
7472;DHT22;3777;48.722;8.110;2024-01-06T01:26:10;7.80;99.90
7472;DHT22;3777;48.722;8.110;2024-01-06T01:28:37;7.70;99.90
7472;DHT22;3777;48.722;8.110;2024-01-06T01:31:04;7.70;99.90
7472;DHT22;3777;48.722;8.110;2024-01-06T01:33:31;7.70;99.90
7472;DHT22;3777;48.722;8.110;2024-01-06T01:35:58;7.80;99.90
7472;DHT22;3777;48.722;8.110;2024-01-06T01:38:25;7.70;99.90
7472;DHT22;3777;48.722;8.110;2024-01-06T01:40:51;7.70;99.90
7472;DHT22;3777;48.722;8.110;2024-01-06T01:43:20;7.70;99.90
7472;DHT22;3777;48.722;8.110;2024-01-06T01:45:51;7.60;99.90
7472;DHT22;3777;48.722;8.110;2024-01-06T01:48:20;7.60;99.90
7472;DHT22;3777;48.722;8.110;2024-01-06T01:50:47;7.50;99.90
7472;DHT22;3777;48.722;8.110;2024-01-06T01:53:15;7.60;99.90
7472;DHT22;3777;48.722;8.110;2024-01-06T01:55:42;7.60;99.90
7472;DHT22;3777;48.722;8.110;2024-01-06T01:58:12;7.50;99.90
7472;DHT22;3777;48.722;8.110;2024-01-06T02:00:41;7.60;99.90
7472;DHT22;3777;48.722;8.110;2024-01-06T02:03:09;7.60;99.90
7472;DHT22;3777;48.722;8.110;2024-01-06T02:05:38;7.60;99.90
7472;DHT22;3777;48.722;8.110;2024-01-06T02:08:05;7.50;99.90
7472;DHT22;3777;48.722;8.110;2024-01-06T02:10:33;7.50;99.90
7472;DHT22;3777;48.722;8.110;2024-01-06T02:13:08;7.60;99.90
7472;DHT22;3777;48.722;8.110;2024-01-06T02:15:34;7.50;99.90
7472;DHT22;3777;48.722;8.110;2024-01-06T02:18:03;7.50;99.90
7472;DHT22;3777;48.722;8.110;2024-01-06T02:20:31;7.50;99.90
7472;DHT22;3777;48.722;8.110;2024-01-06T02:22:59;7.50;99.90
7472;DHT22;3777;48.722;8.110;2024-01-06T02:25:27;7.60;99.90
7472;DHT22;3777;48.722;8.110;2024-01-06T02:27:54;7.60;99.90
7472;DHT22;3777;48.722;8.110;2024-01-06T02:30:21;7.60;99.90
7472;DHT22;3777;48.722;8.110;2024-01-06T02:32:48;7.60;99.90
7472;DHT22;3777;48.722;8.110;2024-01-06T02:35:15;7.60;99.90
7472;DHT22;3777;48.722;8.110;2024-01-06T02:37:42;7.60;99.90
7472;DHT22;3777;48.722;8.110;2024-01-06T02:40:12;7.60;99.90
7472;DHT22;3777;48.722;8.110;2024-01-06T02:42:40;7.60;99.90
7472;DHT22;3777;48.722;8.110;2024-01-06T02:45:08;7.70;99.90
7472;DHT22;3777;48.722;8.110;2024-01-06T02:47:35;7.70;99.90
7472;DHT22;3777;48.722;8.110;2024-01-06T02:50:02;7.70;99.90
7472;DHT22;3777;48.722;8.110;2024-01-06T02:52:29;7.70;99.90
7472;DHT22;3777;48.722;8.110;2024-01-06T02:54:56;7.60;99.90
7472;DHT22;3777;48.722;8.110;2024-01-06T02:57:24;7.60;99.90
7472;DHT22;3777;48.722;8.110;2024-01-06T02:59:51;7.60;99.90
7472;DHT22;3777;48.722;8.110;2024-01-06T03:02:18;7.60;99.90
7472;DHT22;3777;48.722;8.110;2024-01-06T03:04:45;7.60;99.90
7472;DHT22;3777;48.722;8.110;2024-01-06T03:07:12;7.60;99.90
7472;DHT22;3777;48.722;8.110;2024-01-06T03:09:39;7.50;99.90
7472;DHT22;3777;48.722;8.110;2024-01-06T03:12:06;7.50;99.90
7472;DHT22;3777;48.722;8.110;2024-01-06T03:14:35;7.50;99.90
7472;DHT22;3777;48.722;8.110;2024-01-06T03:17:03;7.50;99.90
7472;DHT22;3777;48.722;8.110;2024-01-06T03:19:30;7.40;99.90
7472;DHT22;3777;48.722;8.110;2024-01-06T03:21:57;7.40;99.90
7472;DHT22;3777;48.722;8.110;2024-01-06T03:24:25;7.30;99.90
7472;DHT22;3777;48.722;8.110;2024-01-06T03:26:52;7.30;99.90
7472;DHT22;3777;48.722;8.110;2024-01-06T03:29:19;7.30;99.90
7472;DHT22;3777;48.722;8.110;2024-01-06T03:31:47;7.30;99.90
7472;DHT22;3777;48.722;8.110;2024-01-06T03:34:14;7.20;99.90
7472;DHT22;3777;48.722;8.110;2024-01-06T03:36:41;7.20;99.90
7472;DHT22;3777;48.722;8.110;2024-01-06T03:39:08;7.30;99.90
7472;DHT22;3777;48.722;8.110;2024-01-06T03:41:36;7.30;99.90
7472;DHT22;3777;48.722;8.110;2024-01-06T03:44:03;7.30;99.90
7472;DHT22;3777;48.722;8.110;2024-01-06T03:46:30;7.30;99.90
7472;DHT22;3777;48.722;8.110;2024-01-06T03:48:59;7.30;99.90
7472;DHT22;3777;48.722;8.110;2024-01-06T03:51:26;7.30;99.90
7472;DHT22;3777;48.722;8.110;2024-01-06T03:53:53;7.30;99.90
7472;DHT22;3777;48.722;8.110;2024-01-06T03:56:20;7.30;99.90
7472;DHT22;3777;48.722;8.110;2024-01-06T03:58:47;7.40;99.90
7472;DHT22;3777;48.722;8.110;2024-01-06T04:01:13;7.40;99.90
7472;DHT22;3777;48.722;8.110;2024-01-06T04:03:40;7.40;99.90
7472;DHT22;3777;48.722;8.110;2024-01-06T04:06:09;7.40;99.90
7472;DHT22;3777;48.722;8.110;2024-01-06T04:08:36;7.50;99.90
7472;DHT22;3777;48.722;8.110;2024-01-06T04:11:03;7.50;99.90
7472;DHT22;3777;48.722;8.110;2024-01-06T04:13:30;7.60;99.90
7472;DHT22;3777;48.722;8.110;2024-01-06T04:15:57;7.60;99.90
7472;DHT22;3777;48.722;8.110;2024-01-06T04:18:24;7.70;99.90
7472;DHT22;3777;48.722;8.110;2024-01-06T04:20:51;7.70;99.90
7472;DHT22;3777;48.722;8.110;2024-01-06T04:23:19;7.80;99.90
7472;DHT22;3777;48.722;8.110;2024-01-06T04:25:46;7.80;99.90
7472;DHT22;3777;48.722;8.110;2024-01-06T04:28:13;7.80;99.90
7472;DHT22;3777;48.722;8.110;2024-01-06T04:30:40;7.80;99.90
7472;DHT22;3777;48.722;8.110;2024-01-06T04:33:07;7.90;99.90
7472;DHT22;3777;48.722;8.110;2024-01-06T04:35:34;7.90;99.90
7472;DHT22;3777;48.722;8.110;2024-01-06T04:38:01;7.90;99.90
7472;DHT22;3777;48.722;8.110;2024-01-06T04:40:29;7.90;99.90
7472;DHT22;3777;48.722;8.110;2024-01-06T04:42:56;7.90;99.90
7472;DHT22;3777;48.722;8.110;2024-01-06T04:45:23;7.90;99.90
7472;DHT22;3777;48.722;8.110;2024-01-06T04:47:50;8.00;99.90
7472;DHT22;3777;48.722;8.110;2024-01-06T04:50:18;8.00;99.90
7472;DHT22;3777;48.722;8.110;2024-01-06T04:52:45;8.00;99.90
7472;DHT22;3777;48.722;8.110;2024-01-06T04:55:12;8.00;99.90
7472;DHT22;3777;48.722;8.110;2024-01-06T04:57:40;8.00;99.90
7472;DHT22;3777;48.722;8.110;2024-01-06T05:00:08;8.10;99.90
7472;DHT22;3777;48.722;8.110;2024-01-06T05:02:35;8.10;99.90
7472;DHT22;3777;48.722;8.110;2024-01-06T05:05:02;8.00;99.90
7472;DHT22;3777;48.722;8.110;2024-01-06T05:07:29;8.00;99.90
7472;DHT22;3777;48.722;8.110;2024-01-06T05:09:56;8.00;99.90
7472;DHT22;3777;48.722;8.110;2024-01-06T05:12:23;8.10;99.90
7472;DHT22;3777;48.722;8.110;2024-01-06T05:14:51;8.10;99.90
7472;DHT22;3777;48.722;8.110;2024-01-06T05:17:18;8.10;99.90
7472;DHT22;3777;48.722;8.110;2024-01-06T05:19:45;8.10;99.90
7472;DHT22;3777;48.722;8.110;2024-01-06T05:22:12;8.10;99.90
7472;DHT22;3777;48.722;8.110;2024-01-06T05:24:39;8.20;99.90
7472;DHT22;3777;48.722;8.110;2024-01-06T05:27:06;8.20;99.90
7472;DHT22;3777;48.722;8.110;2024-01-06T05:29:33;8.10;99.90
7472;DHT22;3777;48.722;8.110;2024-01-06T05:32:01;8.10;99.90
7472;DHT22;3777;48.722;8.110;2024-01-06T05:34:28;8.00;99.90
7472;DHT22;3777;48.722;8.110;2024-01-06T05:36:55;8.00;99.90
7472;DHT22;3777;48.722;8.110;2024-01-06T05:39:22;7.90;99.90
7472;DHT22;3777;48.722;8.110;2024-01-06T05:41:50;7.90;99.90
7472;DHT22;3777;48.722;8.110;2024-01-06T05:44:17;7.80;99.90
7472;DHT22;3777;48.722;8.110;2024-01-06T05:46:44;7.70;99.90
7472;DHT22;3777;48.722;8.110;2024-01-06T05:49:12;7.60;99.90
7472;DHT22;3777;48.722;8.110;2024-01-06T05:51:44;7.50;99.90
7472;DHT22;3777;48.722;8.110;2024-01-06T05:54:11;7.50;99.90
7472;DHT22;3777;48.722;8.110;2024-01-06T05:56:38;7.50;99.90
7472;DHT22;3777;48.722;8.110;2024-01-06T05:59:05;7.50;99.90
7472;DHT22;3777;48.722;8.110;2024-01-06T06:01:32;7.60;99.90
7472;DHT22;3777;48.722;8.110;2024-01-06T06:03:59;7.70;99.90
7472;DHT22;3777;48.722;8.110;2024-01-06T06:06:28;7.70;99.90
7472;DHT22;3777;48.722;8.110;2024-01-06T06:08:55;7.70;99.90
7472;DHT22;3777;48.722;8.110;2024-01-06T06:11:22;7.80;99.90
7472;DHT22;3777;48.722;8.110;2024-01-06T06:13:49;7.80;99.90
7472;DHT22;3777;48.722;8.110;2024-01-06T06:16:15;7.90;99.90
7472;DHT22;3777;48.722;8.110;2024-01-06T06:18:42;8.00;99.90
7472;DHT22;3777;48.722;8.110;2024-01-06T06:21:09;8.10;99.90
7472;DHT22;3777;48.722;8.110;2024-01-06T06:23:38;8.10;99.90
7472;DHT22;3777;48.722;8.110;2024-01-06T06:26:06;8.20;99.90
7472;DHT22;3777;48.722;8.110;2024-01-06T06:28:33;8.20;99.90
7472;DHT22;3777;48.722;8.110;2024-01-06T06:31:01;8.30;99.90
7472;DHT22;3777;48.722;8.110;2024-01-06T06:33:28;8.30;99.90
7472;DHT22;3777;48.722;8.110;2024-01-06T06:35:55;8.30;99.90
7472;DHT22;3777;48.722;8.110;2024-01-06T06:38:22;8.30;99.90
7472;DHT22;3777;48.722;8.110;2024-01-06T06:40:50;8.30;99.90
7472;DHT22;3777;48.722;8.110;2024-01-06T06:43:17;8.30;99.90
7472;DHT22;3777;48.722;8.110;2024-01-06T06:45:44;8.30;99.90
7472;DHT22;3777;48.722;8.110;2024-01-06T06:48:11;8.40;99.90
7472;DHT22;3777;48.722;8.110;2024-01-06T06:50:38;8.30;99.90
7472;DHT22;3777;48.722;8.110;2024-01-06T06:53:06;8.40;99.90
7472;DHT22;3777;48.722;8.110;2024-01-06T06:55:33;8.40;99.90
7472;DHT22;3777;48.722;8.110;2024-01-06T06:58:04;8.40;99.90
7472;DHT22;3777;48.722;8.110;2024-01-06T07:00:31;8.40;99.90
7472;DHT22;3777;48.722;8.110;2024-01-06T07:02:58;8.40;99.90
7472;DHT22;3777;48.722;8.110;2024-01-06T07:05:25;8.40;99.90
7472;DHT22;3777;48.722;8.110;2024-01-06T07:07:52;8.40;99.90
7472;DHT22;3777;48.722;8.110;2024-01-06T07:10:19;8.30;99.90
7472;DHT22;3777;48.722;8.110;2024-01-06T07:12:45;8.30;99.90
7472;DHT22;3777;48.722;8.110;2024-01-06T07:15:14;8.30;99.90
7472;DHT22;3777;48.722;8.110;2024-01-06T07:17:41;8.30;99.90
7472;DHT22;3777;48.722;8.110;2024-01-06T07:20:08;8.30;99.90
7472;DHT22;3777;48.722;8.110;2024-01-06T07:22:36;8.30;99.90
7472;DHT22;3777;48.722;8.110;2024-01-06T07:25:03;8.30;99.90
7472;DHT22;3777;48.722;8.110;2024-01-06T07:27:31;8.30;99.90
7472;DHT22;3777;48.722;8.110;2024-01-06T07:29:58;8.30;99.90
7472;DHT22;3777;48.722;8.110;2024-01-06T07:32:26;8.30;99.90
7472;DHT22;3777;48.722;8.110;2024-01-06T07:34:53;8.30;99.90
7472;DHT22;3777;48.722;8.110;2024-01-06T07:37:20;8.30;99.90
7472;DHT22;3777;48.722;8.110;2024-01-06T07:39:47;8.20;99.90
7472;DHT22;3777;48.722;8.110;2024-01-06T07:42:13;8.20;99.90
7472;DHT22;3777;48.722;8.110;2024-01-06T07:44:40;8.30;99.90
7472;DHT22;3777;48.722;8.110;2024-01-06T07:47:07;8.20;99.90
7472;DHT22;3777;48.722;8.110;2024-01-06T07:49:35;8.10;99.90
7472;DHT22;3777;48.722;8.110;2024-01-06T07:52:03;8.00;99.90
7472;DHT22;3777;48.722;8.110;2024-01-06T07:54:30;7.90;99.90
7472;DHT22;3777;48.722;8.110;2024-01-06T07:56:57;7.70;99.90
7472;DHT22;3777;48.722;8.110;2024-01-06T07:59:24;7.60;99.90
7472;DHT22;3777;48.722;8.110;2024-01-06T08:01:51;7.60;99.90
7472;DHT22;3777;48.722;8.110;2024-01-06T08:04:18;7.40;99.90
7472;DHT22;3777;48.722;8.110;2024-01-06T08:06:47;7.40;99.90
7472;DHT22;3777;48.722;8.110;2024-01-06T08:09:14;7.30;99.90
7472;DHT22;3777;48.722;8.110;2024-01-06T08:11:40;7.40;99.90
7472;DHT22;3777;48.722;8.110;2024-01-06T08:14:08;7.40;99.90
7472;DHT22;3777;48.722;8.110;2024-01-06T08:16:36;7.40;99.90
7472;DHT22;3777;48.722;8.110;2024-01-06T08:19:03;7.40;99.90
7472;DHT22;3777;48.722;8.110;2024-01-06T08:21:30;7.40;99.90
7472;DHT22;3777;48.722;8.110;2024-01-06T08:23:58;7.30;99.90
7472;DHT22;3777;48.722;8.110;2024-01-06T08:26:26;7.40;99.90
7472;DHT22;3777;48.722;8.110;2024-01-06T08:28:53;7.40;99.90
7472;DHT22;3777;48.722;8.110;2024-01-06T08:31:20;7.50;99.90
7472;DHT22;3777;48.722;8.110;2024-01-06T08:33:48;7.60;99.90
7472;DHT22;3777;48.722;8.110;2024-01-06T08:36:15;7.50;99.90
7472;DHT22;3777;48.722;8.110;2024-01-06T08:38:43;7.50;99.90
7472;DHT22;3777;48.722;8.110;2024-01-06T08:41:11;7.50;99.90
7472;DHT22;3777;48.722;8.110;2024-01-06T08:43:38;7.50;99.90
7472;DHT22;3777;48.722;8.110;2024-01-06T08:46:05;7.60;99.90
7472;DHT22;3777;48.722;8.110;2024-01-06T08:48:32;7.60;99.90
7472;DHT22;3777;48.722;8.110;2024-01-06T08:50:59;7.60;99.90
7472;DHT22;3777;48.722;8.110;2024-01-06T08:53:26;7.60;99.90
7472;DHT22;3777;48.722;8.110;2024-01-06T08:55:53;7.70;99.90
7472;DHT22;3777;48.722;8.110;2024-01-06T08:58:21;7.70;99.90
7472;DHT22;3777;48.722;8.110;2024-01-06T09:00:48;7.80;99.90
7472;DHT22;3777;48.722;8.110;2024-01-06T09:03:15;7.80;99.90
7472;DHT22;3777;48.722;8.110;2024-01-06T09:05:43;7.90;99.90
7472;DHT22;3777;48.722;8.110;2024-01-06T09:08:10;8.10;99.90
7472;DHT22;3777;48.722;8.110;2024-01-06T09:10:37;8.20;99.90
7472;DHT22;3777;48.722;8.110;2024-01-06T09:13:04;8.30;99.90
7472;DHT22;3777;48.722;8.110;2024-01-06T09:15:32;8.40;99.90
7472;DHT22;3777;48.722;8.110;2024-01-06T09:17:59;8.30;99.90
7472;DHT22;3777;48.722;8.110;2024-01-06T09:20:27;8.40;99.90
7472;DHT22;3777;48.722;8.110;2024-01-06T09:22:54;8.50;99.90
7472;DHT22;3777;48.722;8.110;2024-01-06T09:25:21;8.60;99.90
7472;DHT22;3777;48.722;8.110;2024-01-06T09:27:50;8.60;99.90
7472;DHT22;3777;48.722;8.110;2024-01-06T09:30:18;8.60;99.90
7472;DHT22;3777;48.722;8.110;2024-01-06T09:32:49;8.70;99.90
7472;DHT22;3777;48.722;8.110;2024-01-06T09:35:16;8.70;99.90
7472;DHT22;3777;48.722;8.110;2024-01-06T09:37:43;8.70;99.90
7472;DHT22;3777;48.722;8.110;2024-01-06T09:40:12;8.60;99.90
7472;DHT22;3777;48.722;8.110;2024-01-06T09:42:40;8.60;99.90
7472;DHT22;3777;48.722;8.110;2024-01-06T09:45:07;8.70;99.90
7472;DHT22;3777;48.722;8.110;2024-01-06T09:47:35;8.70;99.90
7472;DHT22;3777;48.722;8.110;2024-01-06T09:50:09;8.80;99.90
7472;DHT22;3777;48.722;8.110;2024-01-06T09:52:39;8.90;99.90
7472;DHT22;3777;48.722;8.110;2024-01-06T09:55:10;8.90;99.90
7472;DHT22;3777;48.722;8.110;2024-01-06T09:57:37;8.90;99.90
7472;DHT22;3777;48.722;8.110;2024-01-06T10:00:05;8.90;99.90
7472;DHT22;3777;48.722;8.110;2024-01-06T10:02:34;8.70;99.90
7472;DHT22;3777;48.722;8.110;2024-01-06T10:05:01;8.60;99.90
7472;DHT22;3777;48.722;8.110;2024-01-06T10:07:29;8.40;99.90
7472;DHT22;3777;48.722;8.110;2024-01-06T10:09:56;8.20;99.90
7472;DHT22;3777;48.722;8.110;2024-01-06T10:12:23;8.00;99.90
7472;DHT22;3777;48.722;8.110;2024-01-06T10:14:51;7.90;99.90
7472;DHT22;3777;48.722;8.110;2024-01-06T10:17:18;7.80;99.90
7472;DHT22;3777;48.722;8.110;2024-01-06T10:19:46;7.70;99.90
7472;DHT22;3777;48.722;8.110;2024-01-06T10:22:13;7.80;99.90
7472;DHT22;3777;48.722;8.110;2024-01-06T10:24:42;7.90;99.90
7472;DHT22;3777;48.722;8.110;2024-01-06T10:27:09;8.00;99.90
7472;DHT22;3777;48.722;8.110;2024-01-06T10:29:36;8.10;99.90
7472;DHT22;3777;48.722;8.110;2024-01-06T10:32:05;8.20;99.90
7472;DHT22;3777;48.722;8.110;2024-01-06T10:34:32;8.30;99.90
7472;DHT22;3777;48.722;8.110;2024-01-06T10:36:59;8.40;99.90
7472;DHT22;3777;48.722;8.110;2024-01-06T10:39:27;8.50;99.90
7472;DHT22;3777;48.722;8.110;2024-01-06T10:41:57;8.60;99.90
7472;DHT22;3777;48.722;8.110;2024-01-06T10:44:25;8.70;99.90
7472;DHT22;3777;48.722;8.110;2024-01-06T10:46:52;8.80;99.90
7472;DHT22;3777;48.722;8.110;2024-01-06T10:49:22;8.90;99.90
7472;DHT22;3777;48.722;8.110;2024-01-06T10:51:52;9.00;99.90
7472;DHT22;3777;48.722;8.110;2024-01-06T10:54:21;9.10;99.90
7472;DHT22;3777;48.722;8.110;2024-01-06T10:56:49;9.10;99.90
7472;DHT22;3777;48.722;8.110;2024-01-06T10:59:20;9.10;99.90
7472;DHT22;3777;48.722;8.110;2024-01-06T11:01:50;9.20;99.90
7472;DHT22;3777;48.722;8.110;2024-01-06T11:04:18;9.20;99.90
7472;DHT22;3777;48.722;8.110;2024-01-06T11:06:46;9.30;99.90
7472;DHT22;3777;48.722;8.110;2024-01-06T11:09:16;9.30;99.90
7472;DHT22;3777;48.722;8.110;2024-01-06T11:11:45;9.30;99.90
7472;DHT22;3777;48.722;8.110;2024-01-06T11:14:21;9.20;99.90
7472;DHT22;3777;48.722;8.110;2024-01-06T11:16:49;9.20;99.90
7472;DHT22;3777;48.722;8.110;2024-01-06T11:19:44;9.20;99.90
7472;DHT22;3777;48.722;8.110;2024-01-06T11:22:25;9.20;99.90
7472;DHT22;3777;48.722;8.110;2024-01-06T11:24:55;9.20;99.90
7472;DHT22;3777;48.722;8.110;2024-01-06T11:27:23;9.10;99.90
7472;DHT22;3777;48.722;8.110;2024-01-06T11:29:53;9.10;99.90
7472;DHT22;3777;48.722;8.110;2024-01-06T11:32:25;9.10;99.90
7472;DHT22;3777;48.722;8.110;2024-01-06T11:34:54;9.20;99.90
7472;DHT22;3777;48.722;8.110;2024-01-06T11:37:35;9.20;99.90
7472;DHT22;3777;48.722;8.110;2024-01-06T11:40:03;9.10;99.90
7472;DHT22;3777;48.722;8.110;2024-01-06T11:42:34;9.00;99.90
7472;DHT22;3777;48.722;8.110;2024-01-06T11:45:05;9.00;99.90
7472;DHT22;3777;48.722;8.110;2024-01-06T11:47:32;9.10;99.90
7472;DHT22;3777;48.722;8.110;2024-01-06T11:50:00;9.10;99.90
7472;DHT22;3777;48.722;8.110;2024-01-06T11:52:30;9.10;99.90
7472;DHT22;3777;48.722;8.110;2024-01-06T11:54:57;9.10;99.90
7472;DHT22;3777;48.722;8.110;2024-01-06T11:57:25;9.10;99.90
7472;DHT22;3777;48.722;8.110;2024-01-06T11:59:53;9.10;99.90
7472;DHT22;3777;48.722;8.110;2024-01-06T12:02:21;9.20;99.90
7472;DHT22;3777;48.722;8.110;2024-01-06T12:04:49;9.10;99.90
7472;DHT22;3777;48.722;8.110;2024-01-06T12:07:18;9.10;99.90
7472;DHT22;3777;48.722;8.110;2024-01-06T12:09:45;9.00;99.90
7472;DHT22;3777;48.722;8.110;2024-01-06T12:12:15;8.90;99.90
7472;DHT22;3777;48.722;8.110;2024-01-06T12:14:42;8.80;99.90
7472;DHT22;3777;48.722;8.110;2024-01-06T12:17:09;8.70;99.90
7472;DHT22;3777;48.722;8.110;2024-01-06T12:19:42;8.70;99.90
7472;DHT22;3777;48.722;8.110;2024-01-06T12:22:12;8.60;99.90
7472;DHT22;3777;48.722;8.110;2024-01-06T12:24:40;8.70;99.90
7472;DHT22;3777;48.722;8.110;2024-01-06T12:27:07;8.70;99.90
7472;DHT22;3777;48.722;8.110;2024-01-06T12:29:38;8.70;99.90
7472;DHT22;3777;48.722;8.110;2024-01-06T12:32:06;8.70;99.90
7472;DHT22;3777;48.722;8.110;2024-01-06T12:34:34;8.60;99.90
7472;DHT22;3777;48.722;8.110;2024-01-06T12:37:03;8.70;99.90
7472;DHT22;3777;48.722;8.110;2024-01-06T12:39:30;8.40;99.90
7472;DHT22;3777;48.722;8.110;2024-01-06T12:41:58;8.40;99.90
7472;DHT22;3777;48.722;8.110;2024-01-06T12:44:26;8.40;99.90
7472;DHT22;3777;48.722;8.110;2024-01-06T12:46:53;8.50;99.90
7472;DHT22;3777;48.722;8.110;2024-01-06T12:49:20;8.60;99.90
7472;DHT22;3777;48.722;8.110;2024-01-06T12:51:47;8.70;99.90
7472;DHT22;3777;48.722;8.110;2024-01-06T12:54:16;8.70;99.90
7472;DHT22;3777;48.722;8.110;2024-01-06T12:56:43;8.80;99.90
7472;DHT22;3777;48.722;8.110;2024-01-06T12:59:10;8.80;99.90
7472;DHT22;3777;48.722;8.110;2024-01-06T13:01:37;8.80;99.90
7472;DHT22;3777;48.722;8.110;2024-01-06T13:04:04;8.80;99.90
7472;DHT22;3777;48.722;8.110;2024-01-06T13:06:31;8.90;99.90
7472;DHT22;3777;48.722;8.110;2024-01-06T13:08:58;8.90;99.90
7472;DHT22;3777;48.722;8.110;2024-01-06T13:11:27;8.90;99.90
7472;DHT22;3777;48.722;8.110;2024-01-06T13:13:54;9.00;99.90
7472;DHT22;3777;48.722;8.110;2024-01-06T13:16:21;9.00;99.90
7472;DHT22;3777;48.722;8.110;2024-01-06T13:18:48;9.00;99.90
7472;DHT22;3777;48.722;8.110;2024-01-06T13:21:15;9.00;99.90
7472;DHT22;3777;48.722;8.110;2024-01-06T13:23:43;9.00;99.90
7472;DHT22;3777;48.722;8.110;2024-01-06T13:26:10;9.00;99.90
7472;DHT22;3777;48.722;8.110;2024-01-06T13:28:38;9.00;99.90
7472;DHT22;3777;48.722;8.110;2024-01-06T13:31:05;9.00;99.90
7472;DHT22;3777;48.722;8.110;2024-01-06T13:33:32;9.00;99.90
7472;DHT22;3777;48.722;8.110;2024-01-06T13:35:59;8.90;99.90
7472;DHT22;3777;48.722;8.110;2024-01-06T13:38:27;8.90;99.90
7472;DHT22;3777;48.722;8.110;2024-01-06T13:40:54;8.90;99.90
7472;DHT22;3777;48.722;8.110;2024-01-06T13:43:27;8.90;99.90
7472;DHT22;3777;48.722;8.110;2024-01-06T13:45:55;8.90;99.90
7472;DHT22;3777;48.722;8.110;2024-01-06T13:48:22;8.90;99.90
7472;DHT22;3777;48.722;8.110;2024-01-06T13:50:49;8.90;99.90
7472;DHT22;3777;48.722;8.110;2024-01-06T13:53:16;8.90;99.90
7472;DHT22;3777;48.722;8.110;2024-01-06T13:55:44;8.80;99.90
7472;DHT22;3777;48.722;8.110;2024-01-06T13:58:11;8.80;99.90
7472;DHT22;3777;48.722;8.110;2024-01-06T14:00:38;8.70;99.90
7472;DHT22;3777;48.722;8.110;2024-01-06T14:03:06;8.70;99.90
7472;DHT22;3777;48.722;8.110;2024-01-06T14:05:33;8.70;99.90
7472;DHT22;3777;48.722;8.110;2024-01-06T14:08:01;8.70;99.90
7472;DHT22;3777;48.722;8.110;2024-01-06T14:10:28;8.60;99.90
7472;DHT22;3777;48.722;8.110;2024-01-06T14:12:57;8.60;99.90
7472;DHT22;3777;48.722;8.110;2024-01-06T14:15:24;8.60;99.90
7472;DHT22;3777;48.722;8.110;2024-01-06T14:17:52;8.60;99.90
7472;DHT22;3777;48.722;8.110;2024-01-06T14:20:20;8.50;99.90
7472;DHT22;3777;48.722;8.110;2024-01-06T14:22:48;8.50;99.90
7472;DHT22;3777;48.722;8.110;2024-01-06T14:25:15;8.40;99.90
7472;DHT22;3777;48.722;8.110;2024-01-06T14:27:44;8.40;99.90
7472;DHT22;3777;48.722;8.110;2024-01-06T14:30:11;8.40;99.90
7472;DHT22;3777;48.722;8.110;2024-01-06T14:32:38;8.40;99.90
7472;DHT22;3777;48.722;8.110;2024-01-06T14:35:06;8.50;99.90
7472;DHT22;3777;48.722;8.110;2024-01-06T14:37:38;8.50;99.90
7472;DHT22;3777;48.722;8.110;2024-01-06T14:40:06;8.50;99.90
7472;DHT22;3777;48.722;8.110;2024-01-06T14:42:33;8.50;99.90
7472;DHT22;3777;48.722;8.110;2024-01-06T14:45:01;8.50;99.90
7472;DHT22;3777;48.722;8.110;2024-01-06T14:47:28;8.50;99.90
7472;DHT22;3777;48.722;8.110;2024-01-06T14:49:55;8.50;99.90
7472;DHT22;3777;48.722;8.110;2024-01-06T14:52:22;8.40;99.90
7472;DHT22;3777;48.722;8.110;2024-01-06T14:54:51;8.40;99.90
7472;DHT22;3777;48.722;8.110;2024-01-06T14:57:18;8.40;99.90
7472;DHT22;3777;48.722;8.110;2024-01-06T14:59:45;8.40;99.90
7472;DHT22;3777;48.722;8.110;2024-01-06T15:02:12;8.40;99.90
7472;DHT22;3777;48.722;8.110;2024-01-06T15:04:39;8.40;99.90
7472;DHT22;3777;48.722;8.110;2024-01-06T15:07:06;8.40;99.90
7472;DHT22;3777;48.722;8.110;2024-01-06T15:09:33;8.40;99.90
7472;DHT22;3777;48.722;8.110;2024-01-06T15:12:06;8.40;99.90
7472;DHT22;3777;48.722;8.110;2024-01-06T15:14:33;8.40;99.90
7472;DHT22;3777;48.722;8.110;2024-01-06T15:17:00;8.20;99.90
7472;DHT22;3777;48.722;8.110;2024-01-06T15:19:27;8.20;99.90
7472;DHT22;3777;48.722;8.110;2024-01-06T15:21:56;8.20;99.90
7472;DHT22;3777;48.722;8.110;2024-01-06T15:24:23;8.20;99.90
7472;DHT22;3777;48.722;8.110;2024-01-06T15:26:50;8.20;99.90
7472;DHT22;3777;48.722;8.110;2024-01-06T15:29:19;8.20;99.90
7472;DHT22;3777;48.722;8.110;2024-01-06T15:31:46;8.10;99.90
7472;DHT22;3777;48.722;8.110;2024-01-06T15:34:13;8.20;99.90
7472;DHT22;3777;48.722;8.110;2024-01-06T15:36:40;8.10;99.90
7472;DHT22;3777;48.722;8.110;2024-01-06T15:39:07;8.10;99.90
7472;DHT22;3777;48.722;8.110;2024-01-06T15:41:34;8.10;99.90
7472;DHT22;3777;48.722;8.110;2024-01-06T15:44:01;8.10;99.90
7472;DHT22;3777;48.722;8.110;2024-01-06T15:46:29;8.10;99.90
7472;DHT22;3777;48.722;8.110;2024-01-06T15:48:58;8.00;99.90
7472;DHT22;3777;48.722;8.110;2024-01-06T15:51:25;7.80;99.90
7472;DHT22;3777;48.722;8.110;2024-01-06T15:53:52;7.90;99.90
7472;DHT22;3777;48.722;8.110;2024-01-06T15:56:19;7.80;99.90
7472;DHT22;3777;48.722;8.110;2024-01-06T15:58:46;7.90;99.90
7472;DHT22;3777;48.722;8.110;2024-01-06T16:01:13;7.90;99.90
7472;DHT22;3777;48.722;8.110;2024-01-06T16:03:41;7.80;99.90
7472;DHT22;3777;48.722;8.110;2024-01-06T16:06:08;7.80;99.90
7472;DHT22;3777;48.722;8.110;2024-01-06T16:08:35;7.80;99.90
7472;DHT22;3777;48.722;8.110;2024-01-06T16:11:02;7.90;99.90
7472;DHT22;3777;48.722;8.110;2024-01-06T16:13:30;7.80;99.90
7472;DHT22;3777;48.722;8.110;2024-01-06T16:15:57;7.90;99.90
7472;DHT22;3777;48.722;8.110;2024-01-06T16:18:23;7.90;99.90